sensor_id;sensor_type;location;lat;lon;timestamp;temperature;humidity
26541;DHT22;14206;50.202;10.948;2024-02-23T00:00:44;10.30;96.20
26541;DHT22;14206;50.202;10.948;2024-02-23T00:03:11;10.30;95.90
26541;DHT22;14206;50.202;10.948;2024-02-23T00:05:38;10.30;96.40
26541;DHT22;14206;50.202;10.948;2024-02-23T00:08:07;10.20;96.00
26541;DHT22;14206;50.202;10.948;2024-02-23T00:10:35;10.20;96.30
26541;DHT22;14206;50.202;10.948;2024-02-23T00:13:02;10.20;96.20
26541;DHT22;14206;50.202;10.948;2024-02-23T00:15:29;10.10;96.50
26541;DHT22;14206;50.202;10.948;2024-02-23T00:17:56;10.10;96.20
26541;DHT22;14206;50.202;10.948;2024-02-23T00:20:23;10.10;96.30
26541;DHT22;14206;50.202;10.948;2024-02-23T00:22:50;10.10;95.90
26541;DHT22;14206;50.202;10.948;2024-02-23T00:25:17;10.10;95.70
26541;DHT22;14206;50.202;10.948;2024-02-23T00:27:46;10.10;95.80
26541;DHT22;14206;50.202;10.948;2024-02-23T00:30:14;10.00;95.40
26541;DHT22;14206;50.202;10.948;2024-02-23T00:32:41;10.00;95.40
26541;DHT22;14206;50.202;10.948;2024-02-23T00:35:08;10.00;95.70
26541;DHT22;14206;50.202;10.948;2024-02-23T00:37:34;9.90;96.50
26541;DHT22;14206;50.202;10.948;2024-02-23T00:40:03;9.90;96.60
26541;DHT22;14206;50.202;10.948;2024-02-23T00:42:33;9.80;96.60
26541;DHT22;14206;50.202;10.948;2024-02-23T00:45:00;9.70;96.60
26541;DHT22;14206;50.202;10.948;2024-02-23T00:47:27;9.70;96.60
26541;DHT22;14206;50.202;10.948;2024-02-23T00:49:57;9.70;96.60
26541;DHT22;14206;50.202;10.948;2024-02-23T00:52:24;9.70;96.50
26541;DHT22;14206;50.202;10.948;2024-02-23T00:54:52;9.70;96.60
26541;DHT22;14206;50.202;10.948;2024-02-23T00:57:18;9.70;96.60
26541;DHT22;14206;50.202;10.948;2024-02-23T00:59:52;9.70;96.60
26541;DHT22;14206;50.202;10.948;2024-02-23T01:02:19;9.70;96.50
26541;DHT22;14206;50.202;10.948;2024-02-23T01:04:46;9.80;95.90
26541;DHT22;14206;50.202;10.948;2024-02-23T01:07:13;9.80;96.30
26541;DHT22;14206;50.202;10.948;2024-02-23T01:09:40;9.70;94.20
26541;DHT22;14206;50.202;10.948;2024-02-23T01:12:07;9.70;90.40
26541;DHT22;14206;50.202;10.948;2024-02-23T01:14:35;9.70;88.70
26541;DHT22;14206;50.202;10.948;2024-02-23T01:17:02;9.60;88.30
26541;DHT22;14206;50.202;10.948;2024-02-23T01:19:29;9.50;89.00
26541;DHT22;14206;50.202;10.948;2024-02-23T01:21:56;9.40;89.00
26541;DHT22;14206;50.202;10.948;2024-02-23T01:24:27;9.40;88.00
26541;DHT22;14206;50.202;10.948;2024-02-23T01:26:55;9.20;88.10
26541;DHT22;14206;50.202;10.948;2024-02-23T01:29:23;9.20;87.60
26541;DHT22;14206;50.202;10.948;2024-02-23T01:31:51;9.10;88.40
26541;DHT22;14206;50.202;10.948;2024-02-23T01:34:18;9.10;87.30
26541;DHT22;14206;50.202;10.948;2024-02-23T01:36:45;9.10;87.30
26541;DHT22;14206;50.202;10.948;2024-02-23T01:39:12;9.00;86.00
26541;DHT22;14206;50.202;10.948;2024-02-23T01:41:39;9.00;86.90
26541;DHT22;14206;50.202;10.948;2024-02-23T01:44:06;9.00;87.50
26541;DHT22;14206;50.202;10.948;2024-02-23T01:46:33;8.90;86.40
26541;DHT22;14206;50.202;10.948;2024-02-23T01:49:00;8.90;85.70
26541;DHT22;14206;50.202;10.948;2024-02-23T01:51:27;8.90;85.30
26541;DHT22;14206;50.202;10.948;2024-02-23T01:53:54;8.90;85.70
26541;DHT22;14206;50.202;10.948;2024-02-23T01:56:21;8.80;85.80
26541;DHT22;14206;50.202;10.948;2024-02-23T01:58:48;8.80;85.20
26541;DHT22;14206;50.202;10.948;2024-02-23T02:01:15;8.70;86.10
26541;DHT22;14206;50.202;10.948;2024-02-23T02:03:42;8.70;85.60
26541;DHT22;14206;50.202;10.948;2024-02-23T02:06:10;8.70;86.00
26541;DHT22;14206;50.202;10.948;2024-02-23T02:08:38;8.70;85.70
26541;DHT22;14206;50.202;10.948;2024-02-23T02:11:05;8.70;86.20
26541;DHT22;14206;50.202;10.948;2024-02-23T02:13:32;8.60;85.90
26541;DHT22;14206;50.202;10.948;2024-02-23T02:16:00;8.60;86.50
26541;DHT22;14206;50.202;10.948;2024-02-23T02:18:28;8.60;87.10
26541;DHT22;14206;50.202;10.948;2024-02-23T02:20:56;8.60;86.50
26541;DHT22;14206;50.202;10.948;2024-02-23T02:23:24;8.60;87.40
26541;DHT22;14206;50.202;10.948;2024-02-23T02:25:58;8.60;86.70
26541;DHT22;14206;50.202;10.948;2024-02-23T02:28:25;8.60;85.90
26541;DHT22;14206;50.202;10.948;2024-02-23T02:30:52;8.50;86.40
26541;DHT22;14206;50.202;10.948;2024-02-23T02:33:20;8.50;87.10
26541;DHT22;14206;50.202;10.948;2024-02-23T02:35:47;8.40;87.50
26541;DHT22;14206;50.202;10.948;2024-02-23T02:38:14;8.40;87.90
26541;DHT22;14206;50.202;10.948;2024-02-23T02:40:41;8.30;87.90
26541;DHT22;14206;50.202;10.948;2024-02-23T02:43:08;8.30;87.50
26541;DHT22;14206;50.202;10.948;2024-02-23T02:45:35;8.30;87.40
26541;DHT22;14206;50.202;10.948;2024-02-23T02:48:03;8.30;87.90
26541;DHT22;14206;50.202;10.948;2024-02-23T02:50:30;8.30;87.70
26541;DHT22;14206;50.202;10.948;2024-02-23T02:52:57;8.30;87.70
26541;DHT22;14206;50.202;10.948;2024-02-23T02:55:24;8.30;87.90
26541;DHT22;14206;50.202;10.948;2024-02-23T02:57:51;8.30;87.80
26541;DHT22;14206;50.202;10.948;2024-02-23T03:00:18;8.30;88.50
26541;DHT22;14206;50.202;10.948;2024-02-23T03:02:45;8.30;89.50
26541;DHT22;14206;50.202;10.948;2024-02-23T03:05:12;8.30;89.00
26541;DHT22;14206;50.202;10.948;2024-02-23T03:07:38;8.30;89.20
26541;DHT22;14206;50.202;10.948;2024-02-23T03:10:06;8.20;90.50
26541;DHT22;14206;50.202;10.948;2024-02-23T03:12:33;8.20;89.20
26541;DHT22;14206;50.202;10.948;2024-02-23T03:15:00;8.20;89.70
26541;DHT22;14206;50.202;10.948;2024-02-23T03:17:29;8.20;89.60
26541;DHT22;14206;50.202;10.948;2024-02-23T03:19:56;8.20;89.30
26541;DHT22;14206;50.202;10.948;2024-02-23T03:22:23;8.20;88.90
26541;DHT22;14206;50.202;10.948;2024-02-23T03:24:49;8.10;89.40
26541;DHT22;14206;50.202;10.948;2024-02-23T03:27:16;8.10;88.70
26541;DHT22;14206;50.202;10.948;2024-02-23T03:29:43;8.10;88.40
26541;DHT22;14206;50.202;10.948;2024-02-23T03:32:10;8.10;88.00
26541;DHT22;14206;50.202;10.948;2024-02-23T03:34:37;8.10;87.20
26541;DHT22;14206;50.202;10.948;2024-02-23T03:37:04;8.10;87.30
26541;DHT22;14206;50.202;10.948;2024-02-23T03:39:31;8.10;87.30
26541;DHT22;14206;50.202;10.948;2024-02-23T03:41:59;8.00;86.80
26541;DHT22;14206;50.202;10.948;2024-02-23T03:44:26;8.00;87.10
26541;DHT22;14206;50.202;10.948;2024-02-23T03:46:53;8.00;87.00
26541;DHT22;14206;50.202;10.948;2024-02-23T03:49:20;7.90;86.90
26541;DHT22;14206;50.202;10.948;2024-02-23T03:51:48;7.90;86.40
26541;DHT22;14206;50.202;10.948;2024-02-23T03:54:14;7.90;86.90
26541;DHT22;14206;50.202;10.948;2024-02-23T03:56:42;7.90;86.20
26541;DHT22;14206;50.202;10.948;2024-02-23T03:59:09;7.90;87.60
26541;DHT22;14206;50.202;10.948;2024-02-23T04:01:38;7.80;87.10
26541;DHT22;14206;50.202;10.948;2024-02-23T04:04:07;7.80;86.80
26541;DHT22;14206;50.202;10.948;2024-02-23T04:06:36;7.80;87.20
26541;DHT22;14206;50.202;10.948;2024-02-23T04:09:03;7.70;89.20
26541;DHT22;14206;50.202;10.948;2024-02-23T04:11:33;7.60;90.30
26541;DHT22;14206;50.202;10.948;2024-02-23T04:14:00;7.60;91.10
26541;DHT22;14206;50.202;10.948;2024-02-23T04:16:30;7.60;91.60
26541;DHT22;14206;50.202;10.948;2024-02-23T04:18:57;7.60;91.70
26541;DHT22;14206;50.202;10.948;2024-02-23T04:21:24;7.60;91.50
26541;DHT22;14206;50.202;10.948;2024-02-23T04:23:51;7.60;91.30
26541;DHT22;14206;50.202;10.948;2024-02-23T04:26:18;7.50;90.50
26541;DHT22;14206;50.202;10.948;2024-02-23T04:28:45;7.50;90.60
26541;DHT22;14206;50.202;10.948;2024-02-23T04:31:12;7.50;90.50
26541;DHT22;14206;50.202;10.948;2024-02-23T04:33:39;7.50;90.40
26541;DHT22;14206;50.202;10.948;2024-02-23T04:36:06;7.40;90.50
26541;DHT22;14206;50.202;10.948;2024-02-23T04:38:33;7.40;90.30
26541;DHT22;14206;50.202;10.948;2024-02-23T04:41:03;7.30;90.20
26541;DHT22;14206;50.202;10.948;2024-02-23T04:43:32;7.30;89.20
26541;DHT22;14206;50.202;10.948;2024-02-23T04:45:59;7.20;89.20
26541;DHT22;14206;50.202;10.948;2024-02-23T04:48:26;7.20;89.20
26541;DHT22;14206;50.202;10.948;2024-02-23T04:50:53;7.10;89.90
26541;DHT22;14206;50.202;10.948;2024-02-23T04:53:20;7.10;89.50
26541;DHT22;14206;50.202;10.948;2024-02-23T04:55:47;7.00;89.90
26541;DHT22;14206;50.202;10.948;2024-02-23T04:58:14;6.90;89.70
26541;DHT22;14206;50.202;10.948;2024-02-23T05:00:41;6.90;89.40
26541;DHT22;14206;50.202;10.948;2024-02-23T05:03:08;6.90;89.60
26541;DHT22;14206;50.202;10.948;2024-02-23T05:05:38;6.80;90.20
26541;DHT22;14206;50.202;10.948;2024-02-23T05:08:06;6.80;90.40
26541;DHT22;14206;50.202;10.948;2024-02-23T05:10:33;6.80;90.20
26541;DHT22;14206;50.202;10.948;2024-02-23T05:13:00;6.70;90.50
26541;DHT22;14206;50.202;10.948;2024-02-23T05:15:26;6.70;90.50
26541;DHT22;14206;50.202;10.948;2024-02-23T05:17:53;6.70;91.20
26541;DHT22;14206;50.202;10.948;2024-02-23T05:20:20;6.70;90.90
26541;DHT22;14206;50.202;10.948;2024-02-23T05:22:47;6.70;90.50
26541;DHT22;14206;50.202;10.948;2024-02-23T05:25:14;6.70;90.70
26541;DHT22;14206;50.202;10.948;2024-02-23T05:27:41;6.60;91.10
26541;DHT22;14206;50.202;10.948;2024-02-23T05:30:09;6.60;91.10
26541;DHT22;14206;50.202;10.948;2024-02-23T05:32:37;6.60;91.30
26541;DHT22;14206;50.202;10.948;2024-02-23T05:35:04;6.50;91.50
26541;DHT22;14206;50.202;10.948;2024-02-23T05:37:35;6.50;91.50
26541;DHT22;14206;50.202;10.948;2024-02-23T05:40:03;6.50;91.40
26541;DHT22;14206;50.202;10.948;2024-02-23T05:42:37;6.50;91.40
26541;DHT22;14206;50.202;10.948;2024-02-23T05:45:07;6.40;91.50
26541;DHT22;14206;50.202;10.948;2024-02-23T05:47:39;6.40;91.50
26541;DHT22;14206;50.202;10.948;2024-02-23T05:50:10;6.40;91.40
26541;DHT22;14206;50.202;10.948;2024-02-23T05:52:37;6.40;91.10
26541;DHT22;14206;50.202;10.948;2024-02-23T05:55:06;6.50;90.50
26541;DHT22;14206;50.202;10.948;2024-02-23T05:57:33;6.50;90.10
26541;DHT22;14206;50.202;10.948;2024-02-23T06:00:00;6.60;89.70
26541;DHT22;14206;50.202;10.948;2024-02-23T06:02:37;6.70;89.20
26541;DHT22;14206;50.202;10.948;2024-02-23T06:05:05;6.70;89.20
26541;DHT22;14206;50.202;10.948;2024-02-23T06:07:34;6.70;88.80
26541;DHT22;14206;50.202;10.948;2024-02-23T06:10:01;6.70;88.30
26541;DHT22;14206;50.202;10.948;2024-02-23T06:12:28;6.70;88.10
26541;DHT22;14206;50.202;10.948;2024-02-23T06:14:55;6.70;88.00
26541;DHT22;14206;50.202;10.948;2024-02-23T06:17:24;6.60;88.30
26541;DHT22;14206;50.202;10.948;2024-02-23T06:19:51;6.50;89.00
26541;DHT22;14206;50.202;10.948;2024-02-23T06:22:20;6.50;89.00
26541;DHT22;14206;50.202;10.948;2024-02-23T06:24:50;6.50;89.10
26541;DHT22;14206;50.202;10.948;2024-02-23T06:27:17;6.40;88.60
26541;DHT22;14206;50.202;10.948;2024-02-23T06:29:44;6.40;88.80
26541;DHT22;14206;50.202;10.948;2024-02-23T06:32:10;6.40;88.50
26541;DHT22;14206;50.202;10.948;2024-02-23T06:34:38;6.40;88.10
26541;DHT22;14206;50.202;10.948;2024-02-23T06:37:04;6.40;89.80
26541;DHT22;14206;50.202;10.948;2024-02-23T06:39:32;6.30;88.50
26541;DHT22;14206;50.202;10.948;2024-02-23T06:42:02;6.30;88.30
26541;DHT22;14206;50.202;10.948;2024-02-23T06:44:31;6.30;88.10
26541;DHT22;14206;50.202;10.948;2024-02-23T06:46:58;6.30;88.20
26541;DHT22;14206;50.202;10.948;2024-02-23T06:49:25;6.30;88.60
26541;DHT22;14206;50.202;10.948;2024-02-23T06:51:52;6.30;88.30
26541;DHT22;14206;50.202;10.948;2024-02-23T06:54:19;6.20;89.10
26541;DHT22;14206;50.202;10.948;2024-02-23T06:56:48;6.20;88.80
26541;DHT22;14206;50.202;10.948;2024-02-23T06:59:15;6.20;89.00
26541;DHT22;14206;50.202;10.948;2024-02-23T07:01:51;6.20;89.60
26541;DHT22;14206;50.202;10.948;2024-02-23T07:04:19;6.10;89.90
26541;DHT22;14206;50.202;10.948;2024-02-23T07:06:46;6.10;90.80
26541;DHT22;14206;50.202;10.948;2024-02-23T07:09:13;6.10;91.80
26541;DHT22;14206;50.202;10.948;2024-02-23T07:11:40;6.00;92.70
26541;DHT22;14206;50.202;10.948;2024-02-23T07:14:09;6.00;92.80
26541;DHT22;14206;50.202;10.948;2024-02-23T07:16:39;6.00;92.50
26541;DHT22;14206;50.202;10.948;2024-02-23T07:19:07;6.00;93.20
26541;DHT22;14206;50.202;10.948;2024-02-23T07:21:34;6.00;92.70
26541;DHT22;14206;50.202;10.948;2024-02-23T07:24:01;5.90;93.10
26541;DHT22;14206;50.202;10.948;2024-02-23T07:26:28;5.90;93.40
26541;DHT22;14206;50.202;10.948;2024-02-23T07:28:56;5.90;93.70
26541;DHT22;14206;50.202;10.948;2024-02-23T07:31:23;5.90;94.20
26541;DHT22;14206;50.202;10.948;2024-02-23T07:33:50;5.90;94.60
26541;DHT22;14206;50.202;10.948;2024-02-23T07:36:18;5.90;94.20
26541;DHT22;14206;50.202;10.948;2024-02-23T07:38:45;6.00;93.70
26541;DHT22;14206;50.202;10.948;2024-02-23T07:41:12;6.10;93.30
26541;DHT22;14206;50.202;10.948;2024-02-23T07:43:40;6.20;93.10
26541;DHT22;14206;50.202;10.948;2024-02-23T07:46:07;6.20;94.30
26541;DHT22;14206;50.202;10.948;2024-02-23T07:48:36;6.20;94.70
26541;DHT22;14206;50.202;10.948;2024-02-23T07:51:04;6.30;94.60
26541;DHT22;14206;50.202;10.948;2024-02-23T07:53:31;6.30;94.00
26541;DHT22;14206;50.202;10.948;2024-02-23T07:55:59;6.40;93.80
26541;DHT22;14206;50.202;10.948;2024-02-23T07:58:29;6.40;93.90
26541;DHT22;14206;50.202;10.948;2024-02-23T08:00:56;6.40;93.70
26541;DHT22;14206;50.202;10.948;2024-02-23T08:03:23;6.40;94.60
26541;DHT22;14206;50.202;10.948;2024-02-23T08:05:50;6.50;94.80
26541;DHT22;14206;50.202;10.948;2024-02-23T08:08:17;6.50;93.80
26541;DHT22;14206;50.202;10.948;2024-02-23T08:10:44;6.60;94.10
26541;DHT22;14206;50.202;10.948;2024-02-23T08:13:11;6.60;93.20
26541;DHT22;14206;50.202;10.948;2024-02-23T08:15:38;6.60;93.30
26541;DHT22;14206;50.202;10.948;2024-02-23T08:18:07;6.70;92.60
26541;DHT22;14206;50.202;10.948;2024-02-23T08:20:34;6.80;92.80
26541;DHT22;14206;50.202;10.948;2024-02-23T08:23:00;6.80;92.10
26541;DHT22;14206;50.202;10.948;2024-02-23T08:25:28;6.80;93.20
26541;DHT22;14206;50.202;10.948;2024-02-23T08:27:56;6.80;93.00
26541;DHT22;14206;50.202;10.948;2024-02-23T08:30:24;6.90;92.70
26541;DHT22;14206;50.202;10.948;2024-02-23T08:32:51;6.90;92.10
26541;DHT22;14206;50.202;10.948;2024-02-23T08:35:18;7.00;92.00
26541;DHT22;14206;50.202;10.948;2024-02-23T08:37:45;7.10;92.70
26541;DHT22;14206;50.202;10.948;2024-02-23T08:40:12;7.10;91.30
26541;DHT22;14206;50.202;10.948;2024-02-23T08:42:39;7.20;91.20
26541;DHT22;14206;50.202;10.948;2024-02-23T08:45:06;7.20;91.60
26541;DHT22;14206;50.202;10.948;2024-02-23T08:47:34;7.30;91.20
26541;DHT22;14206;50.202;10.948;2024-02-23T08:50:02;7.30;90.80
26541;DHT22;14206;50.202;10.948;2024-02-23T08:52:30;7.40;91.20
26541;DHT22;14206;50.202;10.948;2024-02-23T08:54:57;7.40;89.60
26541;DHT22;14206;50.202;10.948;2024-02-23T08:57:23;7.40;89.70
26541;DHT22;14206;50.202;10.948;2024-02-23T08:59:50;7.30;90.20
26541;DHT22;14206;50.202;10.948;2024-02-23T09:02:17;7.30;90.90
26541;DHT22;14206;50.202;10.948;2024-02-23T09:04:45;7.40;90.80
26541;DHT22;14206;50.202;10.948;2024-02-23T09:07:12;7.50;90.00
26541;DHT22;14206;50.202;10.948;2024-02-23T09:09:40;7.50;90.30
26541;DHT22;14206;50.202;10.948;2024-02-23T09:12:08;7.60;89.40
26541;DHT22;14206;50.202;10.948;2024-02-23T09:14:37;7.60;88.90
26541;DHT22;14206;50.202;10.948;2024-02-23T09:17:05;7.70;89.90
26541;DHT22;14206;50.202;10.948;2024-02-23T09:19:39;7.70;89.30
26541;DHT22;14206;50.202;10.948;2024-02-23T09:22:06;7.80;88.90
26541;DHT22;14206;50.202;10.948;2024-02-23T09:24:33;7.80;89.20
26541;DHT22;14206;50.202;10.948;2024-02-23T09:27:00;7.80;88.80
26541;DHT22;14206;50.202;10.948;2024-02-23T09:29:27;7.70;88.70
26541;DHT22;14206;50.202;10.948;2024-02-23T09:31:54;7.60;90.00
26541;DHT22;14206;50.202;10.948;2024-02-23T09:34:21;7.60;90.20
26541;DHT22;14206;50.202;10.948;2024-02-23T09:36:48;7.50;90.80
26541;DHT22;14206;50.202;10.948;2024-02-23T09:39:15;7.50;91.00
26541;DHT22;14206;50.202;10.948;2024-02-23T09:41:42;7.60;90.50
26541;DHT22;14206;50.202;10.948;2024-02-23T09:44:10;7.60;90.90
26541;DHT22;14206;50.202;10.948;2024-02-23T09:46:38;7.60;90.80
26541;DHT22;14206;50.202;10.948;2024-02-23T09:49:07;7.60;91.30
26541;DHT22;14206;50.202;10.948;2024-02-23T09:51:35;7.70;90.80
26541;DHT22;14206;50.202;10.948;2024-02-23T09:54:03;7.70;91.30
26541;DHT22;14206;50.202;10.948;2024-02-23T09:56:30;7.80;91.50
26541;DHT22;14206;50.202;10.948;2024-02-23T09:59:01;7.80;89.90
26541;DHT22;14206;50.202;10.948;2024-02-23T10:01:32;7.80;91.00
26541;DHT22;14206;50.202;10.948;2024-02-23T10:04:04;7.80;90.60
26541;DHT22;14206;50.202;10.948;2024-02-23T10:06:35;7.90;89.10
26541;DHT22;14206;50.202;10.948;2024-02-23T10:09:02;7.90;89.30
26541;DHT22;14206;50.202;10.948;2024-02-23T10:11:31;7.90;88.60
26541;DHT22;14206;50.202;10.948;2024-02-23T10:13:58;8.00;88.90
26541;DHT22;14206;50.202;10.948;2024-02-23T10:16:25;8.00;89.40
26541;DHT22;14206;50.202;10.948;2024-02-23T10:18:51;8.00;89.10
26541;DHT22;14206;50.202;10.948;2024-02-23T10:21:18;8.10;88.00
26541;DHT22;14206;50.202;10.948;2024-02-23T10:23:45;8.20;89.10
26541;DHT22;14206;50.202;10.948;2024-02-23T10:26:14;8.20;87.90
26541;DHT22;14206;50.202;10.948;2024-02-23T10:28:46;8.10;86.80
26541;DHT22;14206;50.202;10.948;2024-02-23T10:31:19;8.10;87.00
26541;DHT22;14206;50.202;10.948;2024-02-23T10:33:45;8.10;88.00
26541;DHT22;14206;50.202;10.948;2024-02-23T10:36:15;8.00;88.10
26541;DHT22;14206;50.202;10.948;2024-02-23T10:38:45;8.10;87.70
26541;DHT22;14206;50.202;10.948;2024-02-23T10:41:13;8.10;86.70
26541;DHT22;14206;50.202;10.948;2024-02-23T10:43:45;8.10;85.50
26541;DHT22;14206;50.202;10.948;2024-02-23T10:46:13;8.20;85.90
26541;DHT22;14206;50.202;10.948;2024-02-23T10:48:45;8.20;85.30
26541;DHT22;14206;50.202;10.948;2024-02-23T10:51:13;8.30;83.30
26541;DHT22;14206;50.202;10.948;2024-02-23T10:53:46;8.30;83.40
26541;DHT22;14206;50.202;10.948;2024-02-23T10:56:15;8.30;80.80
26541;DHT22;14206;50.202;10.948;2024-02-23T10:58:42;8.30;81.90
26541;DHT22;14206;50.202;10.948;2024-02-23T11:01:09;8.30;82.40
26541;DHT22;14206;50.202;10.948;2024-02-23T11:03:38;8.40;82.70
26541;DHT22;14206;50.202;10.948;2024-02-23T11:06:08;8.40;81.60
26541;DHT22;14206;50.202;10.948;2024-02-23T11:08:35;8.50;82.80
26541;DHT22;14206;50.202;10.948;2024-02-23T11:11:10;8.50;83.10
26541;DHT22;14206;50.202;10.948;2024-02-23T11:13:39;8.60;82.50
26541;DHT22;14206;50.202;10.948;2024-02-23T11:16:07;8.60;82.00
26541;DHT22;14206;50.202;10.948;2024-02-23T11:18:36;8.60;81.80
26541;DHT22;14206;50.202;10.948;2024-02-23T11:21:10;8.50;82.80
26541;DHT22;14206;50.202;10.948;2024-02-23T11:23:43;8.50;82.30
26541;DHT22;14206;50.202;10.948;2024-02-23T11:26:11;8.50;83.20
26541;DHT22;14206;50.202;10.948;2024-02-23T11:28:49;8.50;82.90
26541;DHT22;14206;50.202;10.948;2024-02-23T11:31:24;8.50;81.70
26541;DHT22;14206;50.202;10.948;2024-02-23T11:33:55;8.50;81.80
26541;DHT22;14206;50.202;10.948;2024-02-23T11:36:23;8.50;83.00
26541;DHT22;14206;50.202;10.948;2024-02-23T11:38:54;8.60;80.90
26541;DHT22;14206;50.202;10.948;2024-02-23T11:41:22;8.60;81.00
26541;DHT22;14206;50.202;10.948;2024-02-23T11:43:51;8.60;81.40
26541;DHT22;14206;50.202;10.948;2024-02-23T11:46:18;8.50;81.00
26541;DHT22;14206;50.202;10.948;2024-02-23T11:48:46;8.50;81.20
26541;DHT22;14206;50.202;10.948;2024-02-23T11:51:15;8.50;80.90
26541;DHT22;14206;50.202;10.948;2024-02-23T11:53:42;8.40;80.00
26541;DHT22;14206;50.202;10.948;2024-02-23T11:56:10;8.40;81.00
26541;DHT22;14206;50.202;10.948;2024-02-23T11:58:37;8.30;80.20
26541;DHT22;14206;50.202;10.948;2024-02-23T12:01:04;8.20;82.00
26541;DHT22;14206;50.202;10.948;2024-02-23T12:03:33;8.20;81.70
26541;DHT22;14206;50.202;10.948;2024-02-23T12:06:01;8.20;81.30
26541;DHT22;14206;50.202;10.948;2024-02-23T12:08:30;8.20;81.30
26541;DHT22;14206;50.202;10.948;2024-02-23T12:10:59;8.20;80.80
26541;DHT22;14206;50.202;10.948;2024-02-23T12:13:27;8.10;80.00
26541;DHT22;14206;50.202;10.948;2024-02-23T12:15:54;8.10;80.20
26541;DHT22;14206;50.202;10.948;2024-02-23T12:18:22;8.00;81.00
26541;DHT22;14206;50.202;10.948;2024-02-23T12:21:01;8.00;82.10
26541;DHT22;14206;50.202;10.948;2024-02-23T12:23:42;8.00;81.20
26541;DHT22;14206;50.202;10.948;2024-02-23T12:26:10;8.00;81.20
26541;DHT22;14206;50.202;10.948;2024-02-23T12:28:40;8.00;81.20
26541;DHT22;14206;50.202;10.948;2024-02-23T12:31:08;8.00;81.20
26541;DHT22;14206;50.202;10.948;2024-02-23T12:33:36;7.90;81.50
26541;DHT22;14206;50.202;10.948;2024-02-23T12:36:08;7.90;81.70
26541;DHT22;14206;50.202;10.948;2024-02-23T12:38:36;7.90;82.30
26541;DHT22;14206;50.202;10.948;2024-02-23T12:41:04;7.90;83.70
26541;DHT22;14206;50.202;10.948;2024-02-23T12:43:31;8.00;80.80
26541;DHT22;14206;50.202;10.948;2024-02-23T12:45:58;8.00;81.40
26541;DHT22;14206;50.202;10.948;2024-02-23T12:48:25;8.10;81.10
26541;DHT22;14206;50.202;10.948;2024-02-23T12:50:52;8.10;81.20
26541;DHT22;14206;50.202;10.948;2024-02-23T12:53:37;8.10;80.40
26541;DHT22;14206;50.202;10.948;2024-02-23T12:56:06;8.20;80.30
26541;DHT22;14206;50.202;10.948;2024-02-23T12:58:37;8.30;80.30
26541;DHT22;14206;50.202;10.948;2024-02-23T13:01:05;8.30;81.20
26541;DHT22;14206;50.202;10.948;2024-02-23T13:03:34;8.40;80.60
26541;DHT22;14206;50.202;10.948;2024-02-23T13:06:02;8.50;79.40
26541;DHT22;14206;50.202;10.948;2024-02-23T13:08:29;8.50;80.40
26541;DHT22;14206;50.202;10.948;2024-02-23T13:10:57;8.60;80.70
26541;DHT22;14206;50.202;10.948;2024-02-23T13:13:24;8.70;81.00
26541;DHT22;14206;50.202;10.948;2024-02-23T13:15:53;8.70;79.20
26541;DHT22;14206;50.202;10.948;2024-02-23T13:18:20;8.70;78.70
26541;DHT22;14206;50.202;10.948;2024-02-23T13:20:47;8.70;78.70
26541;DHT22;14206;50.202;10.948;2024-02-23T13:23:14;8.70;78.40
26541;DHT22;14206;50.202;10.948;2024-02-23T13:25:43;8.70;79.40
26541;DHT22;14206;50.202;10.948;2024-02-23T13:28:11;8.70;79.10
26541;DHT22;14206;50.202;10.948;2024-02-23T13:30:38;8.70;79.30
26541;DHT22;14206;50.202;10.948;2024-02-23T13:33:05;8.70;79.90
26541;DHT22;14206;50.202;10.948;2024-02-23T13:35:33;8.80;80.90
26541;DHT22;14206;50.202;10.948;2024-02-23T13:38:01;8.90;80.10
26541;DHT22;14206;50.202;10.948;2024-02-23T13:40:30;9.00;78.90
26541;DHT22;14206;50.202;10.948;2024-02-23T13:42:58;9.00;78.40
26541;DHT22;14206;50.202;10.948;2024-02-23T13:45:25;8.90;77.30
26541;DHT22;14206;50.202;10.948;2024-02-23T13:50:24;8.90;78.20
26541;DHT22;14206;50.202;10.948;2024-02-23T13:52:51;8.80;77.70
26541;DHT22;14206;50.202;10.948;2024-02-23T13:55:19;8.80;78.90
26541;DHT22;14206;50.202;10.948;2024-02-23T13:57:49;8.80;79.20
26541;DHT22;14206;50.202;10.948;2024-02-23T14:00:17;8.80;79.50
26541;DHT22;14206;50.202;10.948;2024-02-23T14:02:46;8.80;79.30
26541;DHT22;14206;50.202;10.948;2024-02-23T14:05:14;8.80;80.20
26541;DHT22;14206;50.202;10.948;2024-02-23T14:07:42;8.80;79.10
26541;DHT22;14206;50.202;10.948;2024-02-23T14:10:10;8.80;78.40
26541;DHT22;14206;50.202;10.948;2024-02-23T14:12:37;8.80;78.50
26541;DHT22;14206;50.202;10.948;2024-02-23T14:15:04;8.70;80.40
26541;DHT22;14206;50.202;10.948;2024-02-23T14:17:32;8.70;80.40
26541;DHT22;14206;50.202;10.948;2024-02-23T14:20:02;8.70;78.40
26541;DHT22;14206;50.202;10.948;2024-02-23T14:22:30;8.70;79.10
26541;DHT22;14206;50.202;10.948;2024-02-23T14:24:58;8.60;79.20
26541;DHT22;14206;50.202;10.948;2024-02-23T14:27:25;8.60;79.90
26541;DHT22;14206;50.202;10.948;2024-02-23T14:29:57;8.60;80.50
26541;DHT22;14206;50.202;10.948;2024-02-23T14:32:24;8.70;80.00
26541;DHT22;14206;50.202;10.948;2024-02-23T14:34:51;8.70;80.60
26541;DHT22;14206;50.202;10.948;2024-02-23T14:37:19;8.70;80.20
26541;DHT22;14206;50.202;10.948;2024-02-23T14:39:46;8.60;79.90
26541;DHT22;14206;50.202;10.948;2024-02-23T14:42:14;8.60;80.20
26541;DHT22;14206;50.202;10.948;2024-02-23T14:44:40;8.60;79.90
26541;DHT22;14206;50.202;10.948;2024-02-23T14:47:08;8.50;81.00
26541;DHT22;14206;50.202;10.948;2024-02-23T14:49:35;8.50;81.20
26541;DHT22;14206;50.202;10.948;2024-02-23T14:52:02;8.40;80.90
26541;DHT22;14206;50.202;10.948;2024-02-23T14:54:30;8.40;81.60
26541;DHT22;14206;50.202;10.948;2024-02-23T14:56:57;8.40;81.40
26541;DHT22;14206;50.202;10.948;2024-02-23T14:59:24;8.30;82.10
26541;DHT22;14206;50.202;10.948;2024-02-23T15:01:51;8.30;82.40
26541;DHT22;14206;50.202;10.948;2024-02-23T15:04:18;8.30;82.40
26541;DHT22;14206;50.202;10.948;2024-02-23T15:06:45;8.30;82.10
26541;DHT22;14206;50.202;10.948;2024-02-23T15:09:12;8.30;82.40
26541;DHT22;14206;50.202;10.948;2024-02-23T15:11:39;8.30;82.10
26541;DHT22;14206;50.202;10.948;2024-02-23T15:14:06;8.20;82.60
26541;DHT22;14206;50.202;10.948;2024-02-23T15:16:33;8.20;83.50
26541;DHT22;14206;50.202;10.948;2024-02-23T15:19:00;8.10;83.80
26541;DHT22;14206;50.202;10.948;2024-02-23T15:21:27;8.10;83.70
26541;DHT22;14206;50.202;10.948;2024-02-23T15:23:54;8.10;83.80
26541;DHT22;14206;50.202;10.948;2024-02-23T15:26:21;8.00;83.00
26541;DHT22;14206;50.202;10.948;2024-02-23T15:28:48;8.00;84.10
26541;DHT22;14206;50.202;10.948;2024-02-23T15:31:15;8.00;84.30
26541;DHT22;14206;50.202;10.948;2024-02-23T15:33:42;7.90;84.30
26541;DHT22;14206;50.202;10.948;2024-02-23T15:36:09;7.90;83.50